sensor_id;sensor_type;location;lat;lon;timestamp;pressure;altitude;pressure_sealevel;temperature;humidity
44131;BME280;29792;48.726;9.248;2023-06-01T00:01:23;97040.81;;;18.90;44.65
44131;BME280;29792;48.726;9.248;2023-06-01T00:03:48;97053.06;;;18.81;44.87
44131;BME280;29792;48.726;9.248;2023-06-01T00:06:14;97043.75;;;18.72;45.01
44131;BME280;29792;48.726;9.248;2023-06-01T00:08:39;97042.34;;;18.61;45.17
44131;BME280;29792;48.726;9.248;2023-06-01T00:11:05;97038.97;;;18.53;45.54
44131;BME280;29792;48.726;9.248;2023-06-01T00:13:30;97037.88;;;18.47;45.96
44131;BME280;29792;48.726;9.248;2023-06-01T00:15:55;97038.38;;;18.43;46.28
44131;BME280;29792;48.726;9.248;2023-06-01T00:18:21;97041.81;;;18.35;46.24
44131;BME280;29792;48.726;9.248;2023-06-01T00:20:46;97033.09;;;18.28;46.46
44131;BME280;29792;48.726;9.248;2023-06-01T00:23:12;97038.16;;;18.21;46.77
44131;BME280;29792;48.726;9.248;2023-06-01T00:25:37;97047.59;;;18.14;46.84
44131;BME280;29792;48.726;9.248;2023-06-01T00:28:02;97034.69;;;18.06;46.82
44131;BME280;29792;48.726;9.248;2023-06-01T00:30:28;97036.13;;;18.01;46.96
44131;BME280;29792;48.726;9.248;2023-06-01T00:32:53;97041.19;;;17.94;47.16
44131;BME280;29792;48.726;9.248;2023-06-01T00:35:19;97033.28;;;17.87;47.33
44131;BME280;29792;48.726;9.248;2023-06-01T00:37:44;97042.53;;;17.82;47.64
44131;BME280;29792;48.726;9.248;2023-06-01T00:40:10;97035.25;;;17.77;47.97
44131;BME280;29792;48.726;9.248;2023-06-01T00:42:35;97034.78;;;17.74;48.52
44131;BME280;29792;48.726;9.248;2023-06-01T00:45:00;97035.13;;;17.71;48.46
44131;BME280;29792;48.726;9.248;2023-06-01T00:47:25;97035.63;;;17.66;48.93
44131;BME280;29792;48.726;9.248;2023-06-01T00:49:51;97029.47;;;17.59;49.32
44131;BME280;29792;48.726;9.248;2023-06-01T00:52:17;97029.78;;;17.56;49.50
44131;BME280;29792;48.726;9.248;2023-06-01T00:54:43;97029.13;;;17.54;49.50
44131;BME280;29792;48.726;9.248;2023-06-01T00:57:08;97029.66;;;17.49;49.68
44131;BME280;29792;48.726;9.248;2023-06-01T00:59:34;97027.53;;;17.45;49.72
44131;BME280;29792;48.726;9.248;2023-06-01T01:01:59;97030.47;;;17.42;49.51
44131;BME280;29792;48.726;9.248;2023-06-01T01:04:25;97029.97;;;17.38;49.48
44131;BME280;29792;48.726;9.248;2023-06-01T01:07:04;97023.19;;;17.29;48.97
44131;BME280;29792;48.726;9.248;2023-06-01T01:09:44;97024.19;;;17.20;48.95
44131;BME280;29792;48.726;9.248;2023-06-01T01:15:29;97026.63;;;17.05;49.06
44131;BME280;29792;48.726;9.248;2023-06-01T01:18:05;97027.13;;;17.01;49.46
44131;BME280;29792;48.726;9.248;2023-06-01T01:20:40;97029.38;;;16.96;49.21
44131;BME280;29792;48.726;9.248;2023-06-01T01:23:30;97026.16;;;16.94;49.32
44131;BME280;29792;48.726;9.248;2023-06-01T01:26:15;97025.16;;;16.95;49.36
44131;BME280;29792;48.726;9.248;2023-06-01T01:28:49;97025.34;;;16.93;49.13
44131;BME280;29792;48.726;9.248;2023-06-01T01:31:18;97029.88;;;16.91;49.46
44131;BME280;29792;48.726;9.248;2023-06-01T01:33:50;97026.47;;;16.91;49.73
44131;BME280;29792;48.726;9.248;2023-06-01T01:36:18;97034.38;;;16.89;49.68
44131;BME280;29792;48.726;9.248;2023-06-01T01:38:43;97026.97;;;16.86;50.69
44131;BME280;29792;48.726;9.248;2023-06-01T01:41:09;97017.91;;;16.82;49.88
44131;BME280;29792;48.726;9.248;2023-06-01T01:43:35;97022.75;;;16.77;49.97
44131;BME280;29792;48.726;9.248;2023-06-01T01:46:11;97017.38;;;16.70;50.51
44131;BME280;29792;48.726;9.248;2023-06-01T01:48:50;97018.84;;;16.65;50.01
44131;BME280;29792;48.726;9.248;2023-06-01T01:51:26;97016.72;;;16.60;50.14
44131;BME280;29792;48.726;9.248;2023-06-01T01:53:52;97017.34;;;16.54;50.30
44131;BME280;29792;48.726;9.248;2023-06-01T01:56:20;97024.78;;;16.49;50.53
44131;BME280;29792;48.726;9.248;2023-06-01T01:58:47;97011.53;;;16.44;50.69
44131;BME280;29792;48.726;9.248;2023-06-01T02:01:13;97012.16;;;16.38;50.76
44131;BME280;29792;48.726;9.248;2023-06-01T02:03:38;97014.09;;;16.36;50.92
44131;BME280;29792;48.726;9.248;2023-06-01T02:06:04;97015.06;;;16.35;51.52
44131;BME280;29792;48.726;9.248;2023-06-01T02:08:29;97015.38;;;16.32;50.69
44131;BME280;29792;48.726;9.248;2023-06-01T02:10:55;97015.69;;;16.29;51.26
44131;BME280;29792;48.726;9.248;2023-06-01T02:13:20;97010.84;;;16.26;51.28
44131;BME280;29792;48.726;9.248;2023-06-01T02:15:45;97011.94;;;16.23;51.50
44131;BME280;29792;48.726;9.248;2023-06-01T02:18:10;97004.34;;;16.22;51.26
44131;BME280;29792;48.726;9.248;2023-06-01T02:20:36;97000.47;;;16.18;51.71
44131;BME280;29792;48.726;9.248;2023-06-01T02:23:01;97007.72;;;16.14;51.72
44131;BME280;29792;48.726;9.248;2023-06-01T02:25:26;97003.69;;;16.12;51.48
44131;BME280;29792;48.726;9.248;2023-06-01T02:27:52;96997.88;;;16.10;51.68
44131;BME280;29792;48.726;9.248;2023-06-01T02:30:17;96999.81;;;16.08;51.47
44131;BME280;29792;48.726;9.248;2023-06-01T02:32:42;97011.09;;;16.07;52.13
44131;BME280;29792;48.726;9.248;2023-06-01T02:35:10;97005.13;;;16.06;52.41
44131;BME280;29792;48.726;9.248;2023-06-01T02:37:35;97004.50;;;16.04;52.18
44131;BME280;29792;48.726;9.248;2023-06-01T02:40:00;97004.94;;;15.99;52.79
44131;BME280;29792;48.726;9.248;2023-06-01T02:42:26;96995.56;;;15.98;52.74
44131;BME280;29792;48.726;9.248;2023-06-01T02:44:51;96994.13;;;15.96;52.42
44131;BME280;29792;48.726;9.248;2023-06-01T02:47:16;96994.28;;;15.94;52.43
44131;BME280;29792;48.726;9.248;2023-06-01T02:49:41;96995.53;;;15.90;52.92
44131;BME280;29792;48.726;9.248;2023-06-01T02:52:07;97000.06;;;15.88;53.22
44131;BME280;29792;48.726;9.248;2023-06-01T02:54:32;96998.59;;;15.86;52.95
44131;BME280;29792;48.726;9.248;2023-06-01T02:56:57;96995.84;;;15.79;52.96
44131;BME280;29792;48.726;9.248;2023-06-01T02:59:22;96992.41;;;15.71;53.11
44131;BME280;29792;48.726;9.248;2023-06-01T03:01:48;97002.56;;;15.64;53.18
44131;BME280;29792;48.726;9.248;2023-06-01T03:04:13;96994.44;;;15.59;54.14
44131;BME280;29792;48.726;9.248;2023-06-01T03:06:40;96998.94;;;15.57;54.51
44131;BME280;29792;48.726;9.248;2023-06-01T03:09:06;96999.94;;;15.56;54.59
44131;BME280;29792;48.726;9.248;2023-06-01T03:11:31;97009.06;;;15.50;54.92
44131;BME280;29792;48.726;9.248;2023-06-01T03:13:56;97004.22;;;15.47;55.12
44131;BME280;29792;48.726;9.248;2023-06-01T03:16:22;96999.19;;;15.46;55.71
44131;BME280;29792;48.726;9.248;2023-06-01T03:18:48;97004.50;;;15.44;56.46
44131;BME280;29792;48.726;9.248;2023-06-01T03:21:13;96995.94;;;15.44;56.08
44131;BME280;29792;48.726;9.248;2023-06-01T03:23:38;97004.66;;;15.43;56.07
44131;BME280;29792;48.726;9.248;2023-06-01T03:26:09;97006.75;;;15.39;56.02
44131;BME280;29792;48.726;9.248;2023-06-01T03:28:34;97003.34;;;15.39;56.29
44131;BME280;29792;48.726;9.248;2023-06-01T03:31:00;97003.50;;;15.37;55.77
44131;BME280;29792;48.726;9.248;2023-06-01T03:33:26;97009.63;;;15.36;55.99
44131;BME280;29792;48.726;9.248;2023-06-01T03:35:51;97006.09;;;15.37;56.54
44131;BME280;29792;48.726;9.248;2023-06-01T03:38:17;97003.34;;;15.39;56.88
44131;BME280;29792;48.726;9.248;2023-06-01T03:40:42;97003.22;;;15.40;56.67
44131;BME280;29792;48.726;9.248;2023-06-01T03:43:07;97009.34;;;15.39;56.46
44131;BME280;29792;48.726;9.248;2023-06-01T03:45:33;97007.72;;;15.38;56.37
44131;BME280;29792;48.726;9.248;2023-06-01T03:47:58;97012.06;;;15.38;56.49
44131;BME280;29792;48.726;9.248;2023-06-01T03:50:23;97015.59;;;15.37;57.14
44131;BME280;29792;48.726;9.248;2023-06-01T03:52:48;97008.00;;;15.35;57.27
44131;BME280;29792;48.726;9.248;2023-06-01T03:55:14;97015.59;;;15.37;57.56
44131;BME280;29792;48.726;9.248;2023-06-01T03:57:39;97022.69;;;15.35;57.93
44131;BME280;29792;48.726;9.248;2023-06-01T04:00:05;97021.38;;;15.31;57.85
44131;BME280;29792;48.726;9.248;2023-06-01T04:02:55;97019.75;;;15.30;57.57
44131;BME280;29792;48.726;9.248;2023-06-01T04:05:21;97020.06;;;15.26;57.93
44131;BME280;29792;48.726;9.248;2023-06-01T04:07:48;97023.09;;;15.22;58.00
44131;BME280;29792;48.726;9.248;2023-06-01T04:10:14;97027.75;;;15.18;58.58
44131;BME280;29792;48.726;9.248;2023-06-01T04:12:42;97028.06;;;15.15;58.38
44131;BME280;29792;48.726;9.248;2023-06-01T04:15:09;97025.91;;;15.11;58.65
44131;BME280;29792;48.726;9.248;2023-06-01T04:17:36;97022.97;;;15.06;58.33
44131;BME280;29792;48.726;9.248;2023-06-01T04:20:02;97026.66;;;15.03;58.77
44131;BME280;29792;48.726;9.248;2023-06-01T04:22:31;97023.13;;;15.04;59.03
44131;BME280;29792;48.726;9.248;2023-06-01T04:24:56;97034.13;;;15.06;59.46
44131;BME280;29792;48.726;9.248;2023-06-01T04:27:21;97029.75;;;15.07;59.55
44131;BME280;29792;48.726;9.248;2023-06-01T04:29:49;97030.59;;;15.07;59.37
44131;BME280;29792;48.726;9.248;2023-06-01T04:32:15;97031.69;;;15.05;59.55
44131;BME280;29792;48.726;9.248;2023-06-01T04:34:46;97029.91;;;15.05;59.63
44131;BME280;29792;48.726;9.248;2023-06-01T04:37:13;97034.13;;;15.06;60.33
44131;BME280;29792;48.726;9.248;2023-06-01T04:39:40;97035.75;;;15.07;60.40
44131;BME280;29792;48.726;9.248;2023-06-01T04:42:07;97039.78;;;15.10;60.52
44131;BME280;29792;48.726;9.248;2023-06-01T04:44:33;97030.94;;;15.12;60.49
44131;BME280;29792;48.726;9.248;2023-06-01T04:46:59;97033.03;;;15.17;60.69
44131;BME280;29792;48.726;9.248;2023-06-01T04:49:28;97036.44;;;15.17;60.80
44131;BME280;29792;48.726;9.248;2023-06-01T04:51:54;97039.81;;;15.18;60.85
44131;BME280;29792;48.726;9.248;2023-06-01T04:54:19;97044.84;;;15.19;62.02
44131;BME280;29792;48.726;9.248;2023-06-01T04:56:44;97038.72;;;15.20;61.96
44131;BME280;29792;48.726;9.248;2023-06-01T04:59:09;97047.94;;;15.23;62.62
44131;BME280;29792;48.726;9.248;2023-06-01T05:01:35;97049.41;;;15.25;63.29
44131;BME280;29792;48.726;9.248;2023-06-01T05:04:03;97047.34;;;15.29;64.16
44131;BME280;29792;48.726;9.248;2023-06-01T05:06:29;97042.66;;;15.33;65.48
44131;BME280;29792;48.726;9.248;2023-06-01T05:08:54;97049.00;;;15.38;66.67
44131;BME280;29792;48.726;9.248;2023-06-01T05:11:19;97047.88;;;15.41;65.92
44131;BME280;29792;48.726;9.248;2023-06-01T05:13:46;97051.78;;;15.45;65.72
44131;BME280;29792;48.726;9.248;2023-06-01T05:16:11;97051.31;;;15.49;66.50
44131;BME280;29792;48.726;9.248;2023-06-01T05:18:37;97054.31;;;15.54;66.59
44131;BME280;29792;48.726;9.248;2023-06-01T05:21:03;97050.59;;;15.57;66.47
44131;BME280;29792;48.726;9.248;2023-06-01T05:23:29;97046.47;;;15.64;67.57
44131;BME280;29792;48.726;9.248;2023-06-01T05:25:55;97046.13;;;15.67;66.13
44131;BME280;29792;48.726;9.248;2023-06-01T05:28:31;97038.09;;;15.70;66.17
44131;BME280;29792;48.726;9.248;2023-06-01T05:30:58;97041.00;;;15.75;66.02
44131;BME280;29792;48.726;9.248;2023-06-01T05:33:23;97045.06;;;15.78;65.98
44131;BME280;29792;48.726;9.248;2023-06-01T05:35:49;97050.41;;;15.84;66.15
44131;BME280;29792;48.726;9.248;2023-06-01T05:38:15;97050.75;;;15.89;66.79
44131;BME280;29792;48.726;9.248;2023-06-01T05:40:40;97050.31;;;15.94;66.82
44131;BME280;29792;48.726;9.248;2023-06-01T05:43:06;97037.72;;;15.99;66.11
44131;BME280;29792;48.726;9.248;2023-06-01T05:45:33;97042.28;;;16.05;65.75
44131;BME280;29792;48.726;9.248;2023-06-01T05:47:58;97046.00;;;16.11;65.16
44131;BME280;29792;48.726;9.248;2023-06-01T05:50:24;97040.22;;;16.17;64.26
44131;BME280;29792;48.726;9.248;2023-06-01T05:52:50;97045.56;;;16.23;63.47
44131;BME280;29792;48.726;9.248;2023-06-01T05:55:19;97041.38;;;16.30;63.41
44131;BME280;29792;48.726;9.248;2023-06-01T05:57:45;97049.16;;;16.38;63.05
44131;BME280;29792;48.726;9.248;2023-06-01T06:00:14;97054.69;;;16.44;63.04
44131;BME280;29792;48.726;9.248;2023-06-01T06:02:44;97055.50;;;16.52;62.42
44131;BME280;29792;48.726;9.248;2023-06-01T06:05:10;97056.50;;;16.59;62.77
44131;BME280;29792;48.726;9.248;2023-06-01T06:07:36;97056.53;;;16.67;62.85
44131;BME280;29792;48.726;9.248;2023-06-01T06:10:03;97053.31;;;16.73;62.93
44131;BME280;29792;48.726;9.248;2023-06-01T06:12:29;97058.00;;;16.78;62.54
44131;BME280;29792;48.726;9.248;2023-06-01T06:14:55;97060.59;;;16.86;62.81
44131;BME280;29792;48.726;9.248;2023-06-01T06:17:20;97052.19;;;16.92;63.39
44131;BME280;29792;48.726;9.248;2023-06-01T06:19:46;97059.97;;;17.00;63.13
44131;BME280;29792;48.726;9.248;2023-06-01T06:22:13;97055.91;;;17.06;63.30
44131;BME280;29792;48.726;9.248;2023-06-01T06:24:39;97057.53;;;17.15;63.46
44131;BME280;29792;48.726;9.248;2023-06-01T06:27:04;97055.75;;;17.24;63.59
44131;BME280;29792;48.726;9.248;2023-06-01T06:29:31;97054.91;;;17.31;63.29
44131;BME280;29792;48.726;9.248;2023-06-01T06:31:56;97058.78;;;17.43;62.78
44131;BME280;29792;48.726;9.248;2023-06-01T06:34:22;97057.97;;;17.51;62.39
44131;BME280;29792;48.726;9.248;2023-06-01T06:36:47;97050.34;;;17.58;62.46
44131;BME280;29792;48.726;9.248;2023-06-01T06:39:12;97061.19;;;17.69;62.47
44131;BME280;29792;48.726;9.248;2023-06-01T06:41:40;97049.66;;;17.80;61.61
44131;BME280;29792;48.726;9.248;2023-06-01T06:44:06;97053.69;;;17.90;61.20
44131;BME280;29792;48.726;9.248;2023-06-01T06:46:32;97059.31;;;18.02;61.57
44131;BME280;29792;48.726;9.248;2023-06-01T06:49:00;97056.81;;;18.17;61.98
44131;BME280;29792;48.726;9.248;2023-06-01T06:51:26;97055.47;;;18.29;61.48
44131;BME280;29792;48.726;9.248;2023-06-01T06:53:51;97059.75;;;18.45;61.05
44131;BME280;29792;48.726;9.248;2023-06-01T06:56:17;97060.03;;;18.58;59.84
44131;BME280;29792;48.726;9.248;2023-06-01T06:58:43;97063.50;;;18.73;59.93
44131;BME280;29792;48.726;9.248;2023-06-01T07:01:09;97057.59;;;18.87;59.53
44131;BME280;29792;48.726;9.248;2023-06-01T07:03:35;97055.03;;;19.02;58.55
44131;BME280;29792;48.726;9.248;2023-06-01T07:06:02;97060.44;;;19.15;58.27
44131;BME280;29792;48.726;9.248;2023-06-01T07:08:27;97059.84;;;19.28;58.67
44131;BME280;29792;48.726;9.248;2023-06-01T07:10:54;97063.91;;;19.45;58.43
44131;BME280;29792;48.726;9.248;2023-06-01T07:13:21;97063.97;;;19.60;58.19
44131;BME280;29792;48.726;9.248;2023-06-01T07:15:47;97064.59;;;19.76;57.39
44131;BME280;29792;48.726;9.248;2023-06-01T07:18:12;97063.44;;;19.94;57.15
44131;BME280;29792;48.726;9.248;2023-06-01T07:20:38;97064.66;;;20.12;56.60
44131;BME280;29792;48.726;9.248;2023-06-01T07:23:04;97058.91;;;20.32;55.97
44131;BME280;29792;48.726;9.248;2023-06-01T07:25:29;97064.09;;;20.46;55.94
44131;BME280;29792;48.726;9.248;2023-06-01T07:27:55;97058.84;;;20.61;54.09
44131;BME280;29792;48.726;9.248;2023-06-01T07:30:21;97060.81;;;20.74;53.72
44131;BME280;29792;48.726;9.248;2023-06-01T07:32:47;97065.38;;;20.93;54.34
44131;BME280;29792;48.726;9.248;2023-06-01T07:35:12;97049.94;;;21.13;53.79
44131;BME280;29792;48.726;9.248;2023-06-01T07:37:39;97056.94;;;21.33;53.09
44131;BME280;29792;48.726;9.248;2023-06-01T07:40:05;97062.06;;;21.48;52.01
44131;BME280;29792;48.726;9.248;2023-06-01T07:42:31;97058.13;;;21.59;51.48
44131;BME280;29792;48.726;9.248;2023-06-01T07:44:57;97053.81;;;21.73;51.27
44131;BME280;29792;48.726;9.248;2023-06-01T07:47:23;97055.31;;;21.88;51.54
44131;BME280;29792;48.726;9.248;2023-06-01T07:49:50;97062.41;;;22.01;49.99
44131;BME280;29792;48.726;9.248;2023-06-01T07:52:16;97058.66;;;22.10;49.71
44131;BME280;29792;48.726;9.248;2023-06-01T07:54:42;97062.91;;;22.18;49.99
44131;BME280;29792;48.726;9.248;2023-06-01T07:57:08;97060.53;;;22.29;50.49
44131;BME280;29792;48.726;9.248;2023-06-01T07:59:33;97057.59;;;22.45;50.03
44131;BME280;29792;48.726;9.248;2023-06-01T08:01:58;97062.25;;;22.63;49.43
44131;BME280;29792;48.726;9.248;2023-06-01T08:04:25;97054.88;;;22.80;50.10
44131;BME280;29792;48.726;9.248;2023-06-01T08:06:51;97064.38;;;22.94;49.26
44131;BME280;29792;48.726;9.248;2023-06-01T08:09:21;97063.56;;;23.07;49.72
44131;BME280;29792;48.726;9.248;2023-06-01T08:11:50;97065.16;;;23.21;48.76
44131;BME280;29792;48.726;9.248;2023-06-01T08:14:16;97060.75;;;23.35;47.91
44131;BME280;29792;48.726;9.248;2023-06-01T08:16:44;97052.31;;;23.39;48.21
44131;BME280;29792;48.726;9.248;2023-06-01T08:19:10;97048.88;;;23.45;46.69
44131;BME280;29792;48.726;9.248;2023-06-01T08:21:36;97055.53;;;23.54;47.50
44131;BME280;29792;48.726;9.248;2023-06-01T08:24:02;97050.69;;;23.65;47.63
44131;BME280;29792;48.726;9.248;2023-06-01T08:26:27;97053.28;;;23.78;47.33
44131;BME280;29792;48.726;9.248;2023-06-01T08:28:53;97045.41;;;23.84;46.02
44131;BME280;29792;48.726;9.248;2023-06-01T08:31:21;97040.94;;;23.98;46.72
44131;BME280;29792;48.726;9.248;2023-06-01T08:33:48;97046.34;;;24.10;47.71
44131;BME280;29792;48.726;9.248;2023-06-01T08:36:14;97048.94;;;24.16;46.52
44131;BME280;29792;48.726;9.248;2023-06-01T08:38:40;97042.47;;;24.25;46.96
44131;BME280;29792;48.726;9.248;2023-06-01T08:41:31;97045.66;;;24.34;46.13
44131;BME280;29792;48.726;9.248;2023-06-01T08:44:04;97034.94;;;24.42;45.55
44131;BME280;29792;48.726;9.248;2023-06-01T08:46:32;97037.72;;;24.54;45.75
44131;BME280;29792;48.726;9.248;2023-06-01T08:48:58;97036.03;;;24.66;46.29
44131;BME280;29792;48.726;9.248;2023-06-01T08:51:25;97039.78;;;24.77;47.01
44131;BME280;29792;48.726;9.248;2023-06-01T08:53:52;97038.53;;;24.86;45.22
44131;BME280;29792;48.726;9.248;2023-06-01T08:56:18;97038.31;;;24.94;44.92
44131;BME280;29792;48.726;9.248;2023-06-01T08:58:44;97036.44;;;25.01;44.40
44131;BME280;29792;48.726;9.248;2023-06-01T09:01:13;97038.13;;;25.14;45.69
44131;BME280;29792;48.726;9.248;2023-06-01T09:03:40;97037.03;;;25.28;44.78
44131;BME280;29792;48.726;9.248;2023-06-01T09:06:06;97039.81;;;25.33;44.10
44131;BME280;29792;48.726;9.248;2023-06-01T09:08:31;97034.69;;;25.38;44.30
44131;BME280;29792;48.726;9.248;2023-06-01T09:10:57;97029.97;;;25.46;44.24
44131;BME280;29792;48.726;9.248;2023-06-01T09:13:36;97033.94;;;25.56;44.80
44131;BME280;29792;48.726;9.248;2023-06-01T09:16:02;97033.91;;;25.62;43.64
44131;BME280;29792;48.726;9.248;2023-06-01T09:18:28;97042.38;;;25.64;43.64
44131;BME280;29792;48.726;9.248;2023-06-01T09:20:53;97037.84;;;25.71;44.48
44131;BME280;29792;48.726;9.248;2023-06-01T09:23:23;97032.47;;;25.84;44.47
44131;BME280;29792;48.726;9.248;2023-06-01T09:26:03;97026.94;;;25.93;42.31
44131;BME280;29792;48.726;9.248;2023-06-01T09:28:29;97031.16;;;25.94;42.44
44131;BME280;29792;48.726;9.248;2023-06-01T09:30:54;97031.91;;;26.01;42.67
44131;BME280;29792;48.726;9.248;2023-06-01T09:33:19;97030.41;;;26.05;43.32
44131;BME280;29792;48.726;9.248;2023-06-01T09:35:47;97029.78;;;26.09;43.28
44131;BME280;29792;48.726;9.248;2023-06-01T09:38:23;97032.91;;;26.18;43.82
44131;BME280;29792;48.726;9.248;2023-06-01T09:41:00;97029.75;;;26.28;43.03
44131;BME280;29792;48.726;9.248;2023-06-01T09:43:26;97032.88;;;26.36;42.28
44131;BME280;29792;48.726;9.248;2023-06-01T09:46:10;97020.34;;;26.38;43.57
44131;BME280;29792;48.726;9.248;2023-06-01T09:48:39;97025.06;;;26.48;43.75
44131;BME280;29792;48.726;9.248;2023-06-01T09:51:04;97021.19;;;26.50;43.12
44131;BME280;29792;48.726;9.248;2023-06-01T09:53:40;97020.09;;;26.58;42.67
44131;BME280;29792;48.726;9.248;2023-06-01T09:56:06;97020.19;;;26.63;42.43
44131;BME280;29792;48.726;9.248;2023-06-01T09:58:31;97014.50;;;26.66;41.99
44131;BME280;29792;48.726;9.248;2023-06-01T10:00:59;97018.63;;;26.74;43.95
44131;BME280;29792;48.726;9.248;2023-06-01T10:03:25;97013.72;;;26.77;43.46
44131;BME280;29792;48.726;9.248;2023-06-01T10:05:51;97017.16;;;26.78;43.10
44131;BME280;29792;48.726;9.248;2023-06-01T10:08:18;97014.88;;;26.81;43.60
44131;BME280;29792;48.726;9.248;2023-06-01T10:10:46;97005.28;;;26.87;42.89
44131;BME280;29792;48.726;9.248;2023-06-01T10:13:12;97003.69;;;26.86;41.44
44131;BME280;29792;48.726;9.248;2023-06-01T10:15:37;97006.09;;;26.87;41.61
44131;BME280;29792;48.726;9.248;2023-06-01T10:18:04;96995.06;;;26.97;42.39
44131;BME280;29792;48.726;9.248;2023-06-01T10:20:33;96993.00;;;26.99;40.95
44131;BME280;29792;48.726;9.248;2023-06-01T10:22:59;96989.69;;;27.04;41.69
44131;BME280;29792;48.726;9.248;2023-06-01T10:25:38;96998.38;;;27.04;41.74
44131;BME280;29792;48.726;9.248;2023-06-01T10:28:06;96995.84;;;27.09;41.14
44131;BME280;29792;48.726;9.248;2023-06-01T10:30:35;96995.41;;;27.12;40.66
44131;BME280;29792;48.726;9.248;2023-06-01T10:33:01;96992.66;;;27.07;40.32
44131;BME280;29792;48.726;9.248;2023-06-01T10:38:21;96980.19;;;27.03;40.31
44131;BME280;29792;48.726;9.248;2023-06-01T10:40:46;96981.19;;;27.02;40.08
44131;BME280;29792;48.726;9.248;2023-06-01T10:46:00;96990.47;;;27.04;39.46
44131;BME280;29792;48.726;9.248;2023-06-01T10:48:52;96983.16;;;27.06;40.22
44131;BME280;29792;48.726;9.248;2023-06-01T10:51:19;96973.56;;;27.12;41.14
44131;BME280;29792;48.726;9.248;2023-06-01T10:53:45;96976.88;;;27.19;42.60
44131;BME280;29792;48.726;9.248;2023-06-01T10:56:21;96973.09;;;27.26;41.70
44131;BME280;29792;48.726;9.248;2023-06-01T11:01:45;96976.41;;;27.33;41.01
44131;BME280;29792;48.726;9.248;2023-06-01T11:04:12;96971.81;;;27.41;41.63
44131;BME280;29792;48.726;9.248;2023-06-01T11:06:39;96963.69;;;27.42;41.78
44131;BME280;29792;48.726;9.248;2023-06-01T11:09:06;96968.41;;;27.40;40.31
44131;BME280;29792;48.726;9.248;2023-06-01T11:14:13;96966.34;;;27.30;38.85
44131;BME280;29792;48.726;9.248;2023-06-01T11:16:39;96973.31;;;27.25;38.39
44131;BME280;29792;48.726;9.248;2023-06-01T11:19:05;96960.75;;;27.27;39.35
44131;BME280;29792;48.726;9.248;2023-06-01T11:21:41;96956.50;;;27.26;39.42
44131;BME280;29792;48.726;9.248;2023-06-01T11:24:12;96965.78;;;27.28;40.63
44131;BME280;29792;48.726;9.248;2023-06-01T11:26:45;96958.56;;;27.35;39.59
44131;BME280;29792;48.726;9.248;2023-06-01T11:29:17;96963.94;;;27.41;40.03
44131;BME280;29792;48.726;9.248;2023-06-01T11:31:52;96957.75;;;27.47;40.29
44131;BME280;29792;48.726;9.248;2023-06-01T11:34:21;96959.38;;;27.48;38.92
44131;BME280;29792;48.726;9.248;2023-06-01T11:36:51;96955.81;;;27.42;41.14
44131;BME280;29792;48.726;9.248;2023-06-01T11:39:21;96951.91;;;27.33;39.42
44131;BME280;29792;48.726;9.248;2023-06-01T11:42:07;96953.31;;;27.24;39.08
44131;BME280;29792;48.726;9.248;2023-06-01T11:44:34;96948.63;;;27.14;38.85
44131;BME280;29792;48.726;9.248;2023-06-01T11:47:00;96941.63;;;27.08;39.24
44131;BME280;29792;48.726;9.248;2023-06-01T11:49:26;96943.59;;;27.13;39.20
44131;BME280;29792;48.726;9.248;2023-06-01T11:51:52;96938.31;;;27.24;40.11
44131;BME280;29792;48.726;9.248;2023-06-01T11:54:25;96935.69;;;27.36;38.48
44131;BME280;29792;48.726;9.248;2023-06-01T11:56:52;96936.59;;;27.42;37.71
44131;BME280;29792;48.726;9.248;2023-06-01T11:59:17;96928.00;;;27.46;36.70
44131;BME280;29792;48.726;9.248;2023-06-01T12:01:45;96928.09;;;27.51;38.31
44131;BME280;29792;48.726;9.248;2023-06-01T12:04:18;96921.47;;;27.60;39.38
44131;BME280;29792;48.726;9.248;2023-06-01T12:06:43;96920.66;;;27.71;39.75
44131;BME280;29792;48.726;9.248;2023-06-01T12:09:11;96926.38;;;27.80;38.65
44131;BME280;29792;48.726;9.248;2023-06-01T12:11:37;96929.53;;;27.82;38.20
44131;BME280;29792;48.726;9.248;2023-06-01T12:14:03;96922.44;;;27.83;37.62
44131;BME280;29792;48.726;9.248;2023-06-01T12:16:58;96921.63;;;27.82;38.51
44131;BME280;29792;48.726;9.248;2023-06-01T12:19:25;96916.63;;;27.81;38.11
44131;BME280;29792;48.726;9.248;2023-06-01T12:21:52;96911.09;;;27.82;39.52
44131;BME280;29792;48.726;9.248;2023-06-01T12:24:46;96914.09;;;27.86;38.16
44131;BME280;29792;48.726;9.248;2023-06-01T12:27:15;96908.25;;;27.84;37.65
44131;BME280;29792;48.726;9.248;2023-06-01T12:29:44;96904.00;;;27.83;39.32
44131;BME280;29792;48.726;9.248;2023-06-01T12:32:11;96897.72;;;27.84;39.05
44131;BME280;29792;48.726;9.248;2023-06-01T12:34:37;96899.41;;;27.90;38.97
44131;BME280;29792;48.726;9.248;2023-06-01T12:37:17;96896.31;;;27.93;37.84
44131;BME280;29792;48.726;9.248;2023-06-01T12:39:43;96901.19;;;28.01;39.09
44131;BME280;29792;48.726;9.248;2023-06-01T12:42:09;96902.19;;;28.12;39.52
44131;BME280;29792;48.726;9.248;2023-06-01T12:44:38;96899.66;;;28.17;38.25
44131;BME280;29792;48.726;9.248;2023-06-01T12:47:06;96903.09;;;28.17;37.13
44131;BME280;29792;48.726;9.248;2023-06-01T12:49:35;96894.41;;;28.17;37.36
44131;BME280;29792;48.726;9.248;2023-06-01T12:52:02;96889.13;;;28.17;35.98
44131;BME280;29792;48.726;9.248;2023-06-01T12:54:27;96890.16;;;28.16;35.30
44131;BME280;29792;48.726;9.248;2023-06-01T12:56:53;96879.28;;;28.12;35.66
44131;BME280;29792;48.726;9.248;2023-06-01T12:59:21;96885.88;;;28.15;37.45
44131;BME280;29792;48.726;9.248;2023-06-01T13:01:46;96881.78;;;28.19;38.49
44131;BME280;29792;48.726;9.248;2023-06-01T13:04:12;96885.31;;;28.24;37.72
44131;BME280;29792;48.726;9.248;2023-06-01T13:06:37;96886.75;;;28.32;37.15
44131;BME280;29792;48.726;9.248;2023-06-01T13:09:04;96884.69;;;28.34;35.85
44131;BME280;29792;48.726;9.248;2023-06-01T13:11:29;96878.16;;;28.36;37.22
44131;BME280;29792;48.726;9.248;2023-06-01T13:13:55;96887.16;;;28.40;37.41
44131;BME280;29792;48.726;9.248;2023-06-01T13:16:20;96868.25;;;28.43;37.70